sensor_id;sensor_type;location;lat;lon;timestamp;temperature;humidity
580;DHT22;276;48.392;9.950;2023-04-03T00:00:12;7.80;99.90
580;DHT22;276;48.392;9.950;2023-04-03T00:02:40;7.70;99.90
580;DHT22;276;48.392;9.950;2023-04-03T00:05:10;7.70;99.90
580;DHT22;276;48.392;9.950;2023-04-03T00:07:36;7.60;99.90
580;DHT22;276;48.392;9.950;2023-04-03T00:10:04;7.60;99.90
580;DHT22;276;48.392;9.950;2023-04-03T00:12:30;7.60;99.90
580;DHT22;276;48.392;9.950;2023-04-03T00:14:56;7.60;99.90
580;DHT22;276;48.392;9.950;2023-04-03T00:17:21;7.60;99.90
580;DHT22;276;48.392;9.950;2023-04-03T00:19:47;7.60;99.90
580;DHT22;276;48.392;9.950;2023-04-03T00:22:12;7.60;99.90
580;DHT22;276;48.392;9.950;2023-04-03T00:24:38;7.60;99.90
580;DHT22;276;48.392;9.950;2023-04-03T00:27:06;7.60;99.90
580;DHT22;276;48.392;9.950;2023-04-03T00:29:34;7.60;99.90
580;DHT22;276;48.392;9.950;2023-04-03T00:32:02;7.60;99.90
580;DHT22;276;48.392;9.950;2023-04-03T00:34:27;7.60;99.90
580;DHT22;276;48.392;9.950;2023-04-03T00:36:53;7.60;99.90
580;DHT22;276;48.392;9.950;2023-04-03T00:39:19;7.60;99.90
580;DHT22;276;48.392;9.950;2023-04-03T00:41:44;7.50;99.90
580;DHT22;276;48.392;9.950;2023-04-03T00:47:08;7.40;99.90
580;DHT22;276;48.392;9.950;2023-04-03T00:49:35;7.30;99.90
580;DHT22;276;48.392;9.950;2023-04-03T00:52:01;7.30;99.90
580;DHT22;276;48.392;9.950;2023-04-03T00:54:27;7.20;99.90
580;DHT22;276;48.392;9.950;2023-04-03T00:56:54;7.20;99.90
580;DHT22;276;48.392;9.950;2023-04-03T00:59:27;7.20;99.90
580;DHT22;276;48.392;9.950;2023-04-03T01:01:57;7.20;99.90
580;DHT22;276;48.392;9.950;2023-04-03T01:04:35;7.20;99.90
580;DHT22;276;48.392;9.950;2023-04-03T01:07:06;7.20;99.90
580;DHT22;276;48.392;9.950;2023-04-03T01:09:35;7.30;99.90
580;DHT22;276;48.392;9.950;2023-04-03T01:14:48;7.30;99.90
580;DHT22;276;48.392;9.950;2023-04-03T01:17:34;7.30;99.90
580;DHT22;276;48.392;9.950;2023-04-03T01:22:39;7.30;99.90
580;DHT22;276;48.392;9.950;2023-04-03T01:25:07;7.40;99.90
580;DHT22;276;48.392;9.950;2023-04-03T01:27:35;7.30;99.80
580;DHT22;276;48.392;9.950;2023-04-03T01:30:04;7.30;99.50
580;DHT22;276;48.392;9.950;2023-04-03T01:32:29;7.20;99.40
580;DHT22;276;48.392;9.950;2023-04-03T01:34:55;7.20;99.60
580;DHT22;276;48.392;9.950;2023-04-03T01:37:21;7.20;99.70
580;DHT22;276;48.392;9.950;2023-04-03T01:39:48;7.20;99.60
580;DHT22;276;48.392;9.950;2023-04-03T01:42:14;7.20;99.50
580;DHT22;276;48.392;9.950;2023-04-03T01:44:43;7.20;99.20
580;DHT22;276;48.392;9.950;2023-04-03T01:47:10;7.30;98.90
580;DHT22;276;48.392;9.950;2023-04-03T01:49:35;7.30;98.50
580;DHT22;276;48.392;9.950;2023-04-03T01:52:01;7.30;97.80
580;DHT22;276;48.392;9.950;2023-04-03T01:54:26;7.30;97.60
580;DHT22;276;48.392;9.950;2023-04-03T01:56:55;7.30;97.50
580;DHT22;276;48.392;9.950;2023-04-03T01:59:20;7.30;97.30
580;DHT22;276;48.392;9.950;2023-04-03T02:01:47;7.30;97.20
580;DHT22;276;48.392;9.950;2023-04-03T02:04:13;7.30;97.20
580;DHT22;276;48.392;9.950;2023-04-03T02:06:41;7.30;97.30
580;DHT22;276;48.392;9.950;2023-04-03T02:09:06;7.40;97.40
580;DHT22;276;48.392;9.950;2023-04-03T02:11:34;7.40;97.00
580;DHT22;276;48.392;9.950;2023-04-03T02:14:00;7.30;97.00
580;DHT22;276;48.392;9.950;2023-04-03T02:16:28;7.40;96.80
580;DHT22;276;48.392;9.950;2023-04-03T02:18:54;7.30;96.80
580;DHT22;276;48.392;9.950;2023-04-03T02:21:24;7.30;97.00
580;DHT22;276;48.392;9.950;2023-04-03T02:23:50;7.40;97.10
580;DHT22;276;48.392;9.950;2023-04-03T02:26:16;7.40;96.80
580;DHT22;276;48.392;9.950;2023-04-03T02:28:47;7.40;96.70
580;DHT22;276;48.392;9.950;2023-04-03T02:31:13;7.40;96.80
580;DHT22;276;48.392;9.950;2023-04-03T02:33:38;7.50;96.90
580;DHT22;276;48.392;9.950;2023-04-03T02:36:05;7.50;96.80
580;DHT22;276;48.392;9.950;2023-04-03T02:38:32;7.50;96.40
580;DHT22;276;48.392;9.950;2023-04-03T02:41:06;7.40;96.00
580;DHT22;276;48.392;9.950;2023-04-03T02:43:32;7.40;96.00
580;DHT22;276;48.392;9.950;2023-04-03T02:46:00;7.40;96.30
580;DHT22;276;48.392;9.950;2023-04-03T02:48:26;7.40;96.40
580;DHT22;276;48.392;9.950;2023-04-03T02:50:53;7.50;96.60
580;DHT22;276;48.392;9.950;2023-04-03T02:53:18;7.40;96.40
580;DHT22;276;48.392;9.950;2023-04-03T02:55:47;7.40;96.50
580;DHT22;276;48.392;9.950;2023-04-03T02:58:13;7.40;96.70
580;DHT22;276;48.392;9.950;2023-04-03T03:00:39;7.50;97.00
580;DHT22;276;48.392;9.950;2023-04-03T03:03:04;7.50;97.00
580;DHT22;276;48.392;9.950;2023-04-03T03:05:33;7.50;97.20
580;DHT22;276;48.392;9.950;2023-04-03T03:07:58;7.40;97.40
580;DHT22;276;48.392;9.950;2023-04-03T03:10:24;7.50;97.50
580;DHT22;276;48.392;9.950;2023-04-03T03:12:50;7.40;97.50
580;DHT22;276;48.392;9.950;2023-04-03T03:15:16;7.50;97.70
580;DHT22;276;48.392;9.950;2023-04-03T03:17:42;7.40;97.40
580;DHT22;276;48.392;9.950;2023-04-03T03:20:08;7.40;97.40
580;DHT22;276;48.392;9.950;2023-04-03T03:22:37;7.40;97.50
580;DHT22;276;48.392;9.950;2023-04-03T03:25:03;7.40;97.50
580;DHT22;276;48.392;9.950;2023-04-03T03:27:29;7.40;97.50
580;DHT22;276;48.392;9.950;2023-04-03T03:29:54;7.40;97.40
580;DHT22;276;48.392;9.950;2023-04-03T03:32:20;7.40;97.10
580;DHT22;276;48.392;9.950;2023-04-03T03:34:46;7.40;96.60
580;DHT22;276;48.392;9.950;2023-04-03T03:37:13;7.40;95.60
580;DHT22;276;48.392;9.950;2023-04-03T03:39:39;7.40;95.40
580;DHT22;276;48.392;9.950;2023-04-03T03:42:05;7.30;95.00
580;DHT22;276;48.392;9.950;2023-04-03T03:44:30;7.30;94.30
580;DHT22;276;48.392;9.950;2023-04-03T03:46:56;7.30;94.40
580;DHT22;276;48.392;9.950;2023-04-03T03:49:22;7.30;94.30
580;DHT22;276;48.392;9.950;2023-04-03T03:51:47;7.30;94.30
580;DHT22;276;48.392;9.950;2023-04-03T03:54:13;7.30;94.50
580;DHT22;276;48.392;9.950;2023-04-03T03:56:39;7.30;94.60
580;DHT22;276;48.392;9.950;2023-04-03T03:59:05;7.30;94.70
580;DHT22;276;48.392;9.950;2023-04-03T04:01:35;7.40;94.70
580;DHT22;276;48.392;9.950;2023-04-03T04:04:03;7.30;94.60
580;DHT22;276;48.392;9.950;2023-04-03T04:06:29;7.40;94.90
580;DHT22;276;48.392;9.950;2023-04-03T04:08:57;7.40;94.30
580;DHT22;276;48.392;9.950;2023-04-03T04:11:22;7.40;94.40
580;DHT22;276;48.392;9.950;2023-04-03T04:13:48;7.40;94.40
580;DHT22;276;48.392;9.950;2023-04-03T04:16:13;7.40;94.40
580;DHT22;276;48.392;9.950;2023-04-03T04:18:41;7.50;94.60
580;DHT22;276;48.392;9.950;2023-04-03T04:21:07;7.50;94.70
580;DHT22;276;48.392;9.950;2023-04-03T04:23:32;7.40;94.50
580;DHT22;276;48.392;9.950;2023-04-03T04:25:58;7.40;94.40
580;DHT22;276;48.392;9.950;2023-04-03T04:28:26;7.40;94.40
580;DHT22;276;48.392;9.950;2023-04-03T04:30:54;7.40;94.40
580;DHT22;276;48.392;9.950;2023-04-03T04:33:20;7.40;94.50
580;DHT22;276;48.392;9.950;2023-04-03T04:35:47;7.40;94.40
580;DHT22;276;48.392;9.950;2023-04-03T04:38:13;7.50;94.60
580;DHT22;276;48.392;9.950;2023-04-03T04:40:43;7.50;94.60
580;DHT22;276;48.392;9.950;2023-04-03T04:43:09;7.50;94.60
580;DHT22;276;48.392;9.950;2023-04-03T04:45:40;7.50;94.80
580;DHT22;276;48.392;9.950;2023-04-03T04:48:05;7.50;94.80
580;DHT22;276;48.392;9.950;2023-04-03T04:50:31;7.60;94.80
580;DHT22;276;48.392;9.950;2023-04-03T04:52:56;7.50;94.70
580;DHT22;276;48.392;9.950;2023-04-03T04:55:22;7.50;94.70
580;DHT22;276;48.392;9.950;2023-04-03T04:57:48;7.50;94.90
580;DHT22;276;48.392;9.950;2023-04-03T05:00:14;7.50;94.90
580;DHT22;276;48.392;9.950;2023-04-03T05:02:40;7.40;95.00
580;DHT22;276;48.392;9.950;2023-04-03T05:05:06;7.50;95.40
580;DHT22;276;48.392;9.950;2023-04-03T05:07:36;7.40;95.40
580;DHT22;276;48.392;9.950;2023-04-03T05:10:04;7.40;95.50
580;DHT22;276;48.392;9.950;2023-04-03T05:12:30;7.50;95.50
580;DHT22;276;48.392;9.950;2023-04-03T05:14:55;7.50;95.30
580;DHT22;276;48.392;9.950;2023-04-03T05:17:21;7.50;95.50
580;DHT22;276;48.392;9.950;2023-04-03T05:19:46;7.50;95.40
580;DHT22;276;48.392;9.950;2023-04-03T05:22:14;7.40;95.40
580;DHT22;276;48.392;9.950;2023-04-03T05:24:45;7.40;95.50
580;DHT22;276;48.392;9.950;2023-04-03T05:27:10;7.40;95.50
580;DHT22;276;48.392;9.950;2023-04-03T05:29:38;7.40;95.50
580;DHT22;276;48.392;9.950;2023-04-03T05:32:04;7.40;95.60
580;DHT22;276;48.392;9.950;2023-04-03T05:34:32;7.40;95.70
580;DHT22;276;48.392;9.950;2023-04-03T05:36:58;7.40;95.70
580;DHT22;276;48.392;9.950;2023-04-03T05:39:24;7.30;95.70
580;DHT22;276;48.392;9.950;2023-04-03T05:41:50;7.30;95.80
580;DHT22;276;48.392;9.950;2023-04-03T05:44:18;7.30;95.90
580;DHT22;276;48.392;9.950;2023-04-03T05:46:46;7.30;95.90
580;DHT22;276;48.392;9.950;2023-04-03T05:49:12;7.20;95.90
580;DHT22;276;48.392;9.950;2023-04-03T05:51:39;7.20;96.10
580;DHT22;276;48.392;9.950;2023-04-03T05:54:17;7.30;96.20
580;DHT22;276;48.392;9.950;2023-04-03T05:56:43;7.20;96.30
580;DHT22;276;48.392;9.950;2023-04-03T05:59:09;7.30;96.40
580;DHT22;276;48.392;9.950;2023-04-03T06:01:40;7.30;96.40
580;DHT22;276;48.392;9.950;2023-04-03T06:04:06;7.30;96.40
580;DHT22;276;48.392;9.950;2023-04-03T06:06:52;7.30;96.40
580;DHT22;276;48.392;9.950;2023-04-03T06:09:19;7.30;96.60
580;DHT22;276;48.392;9.950;2023-04-03T06:11:47;7.30;96.60
580;DHT22;276;48.392;9.950;2023-04-03T06:14:13;7.30;96.60
580;DHT22;276;48.392;9.950;2023-04-03T06:16:39;7.30;96.60
580;DHT22;276;48.392;9.950;2023-04-03T06:19:09;7.30;96.80
580;DHT22;276;48.392;9.950;2023-04-03T06:21:35;7.30;96.80
580;DHT22;276;48.392;9.950;2023-04-03T06:24:02;7.20;96.70
580;DHT22;276;48.392;9.950;2023-04-03T06:26:28;7.20;96.90
580;DHT22;276;48.392;9.950;2023-04-03T06:28:54;7.20;97.10
580;DHT22;276;48.392;9.950;2023-04-03T06:31:20;7.20;97.10
580;DHT22;276;48.392;9.950;2023-04-03T06:33:45;7.10;97.10
580;DHT22;276;48.392;9.950;2023-04-03T06:36:12;7.10;97.30
580;DHT22;276;48.392;9.950;2023-04-03T06:38:38;7.10;97.40
580;DHT22;276;48.392;9.950;2023-04-03T06:41:06;7.10;97.50
580;DHT22;276;48.392;9.950;2023-04-03T06:43:34;7.00;97.50
580;DHT22;276;48.392;9.950;2023-04-03T06:46:03;7.00;97.70
580;DHT22;276;48.392;9.950;2023-04-03T06:48:28;6.90;97.90
580;DHT22;276;48.392;9.950;2023-04-03T06:50:54;6.90;98.00
580;DHT22;276;48.392;9.950;2023-04-03T06:53:22;6.90;98.20
580;DHT22;276;48.392;9.950;2023-04-03T06:55:50;6.90;98.10
580;DHT22;276;48.392;9.950;2023-04-03T06:58:20;6.90;98.20
580;DHT22;276;48.392;9.950;2023-04-03T07:00:47;6.80;98.30
580;DHT22;276;48.392;9.950;2023-04-03T07:03:15;6.80;98.40
580;DHT22;276;48.392;9.950;2023-04-03T07:05:43;6.80;98.50
580;DHT22;276;48.392;9.950;2023-04-03T07:08:10;6.90;98.60
580;DHT22;276;48.392;9.950;2023-04-03T07:10:37;6.90;98.60
580;DHT22;276;48.392;9.950;2023-04-03T07:13:03;6.90;98.60
580;DHT22;276;48.392;9.950;2023-04-03T07:15:29;6.90;98.40
580;DHT22;276;48.392;9.950;2023-04-03T07:17:55;6.90;98.30
580;DHT22;276;48.392;9.950;2023-04-03T07:20:21;6.90;98.40
580;DHT22;276;48.392;9.950;2023-04-03T07:22:49;6.90;98.50
580;DHT22;276;48.392;9.950;2023-04-03T07:25:15;7.00;98.60
580;DHT22;276;48.392;9.950;2023-04-03T07:27:45;7.00;98.60
580;DHT22;276;48.392;9.950;2023-04-03T07:30:11;7.00;98.60
580;DHT22;276;48.392;9.950;2023-04-03T07:32:41;7.00;98.40
580;DHT22;276;48.392;9.950;2023-04-03T07:35:07;7.00;98.90
580;DHT22;276;48.392;9.950;2023-04-03T07:37:33;7.00;98.60
580;DHT22;276;48.392;9.950;2023-04-03T07:39:59;7.00;98.60
580;DHT22;276;48.392;9.950;2023-04-03T07:42:27;7.00;98.50
580;DHT22;276;48.392;9.950;2023-04-03T07:44:55;7.00;98.50
580;DHT22;276;48.392;9.950;2023-04-03T07:47:24;7.00;98.50
580;DHT22;276;48.392;9.950;2023-04-03T07:49:49;6.90;98.80
580;DHT22;276;48.392;9.950;2023-04-03T07:52:19;7.00;99.00
580;DHT22;276;48.392;9.950;2023-04-03T07:54:45;7.00;98.90
580;DHT22;276;48.392;9.950;2023-04-03T07:57:11;7.10;98.70
580;DHT22;276;48.392;9.950;2023-04-03T07:59:36;7.10;98.70
580;DHT22;276;48.392;9.950;2023-04-03T08:02:02;7.10;98.70
580;DHT22;276;48.392;9.950;2023-04-03T08:04:30;7.10;98.50
580;DHT22;276;48.392;9.950;2023-04-03T08:06:58;7.10;98.70
580;DHT22;276;48.392;9.950;2023-04-03T08:09:26;7.20;98.80
580;DHT22;276;48.392;9.950;2023-04-03T08:11:52;7.20;98.80
580;DHT22;276;48.392;9.950;2023-04-03T08:14:21;7.30;98.80
580;DHT22;276;48.392;9.950;2023-04-03T08:16:47;7.30;98.80
580;DHT22;276;48.392;9.950;2023-04-03T08:19:18;7.40;98.50
580;DHT22;276;48.392;9.950;2023-04-03T08:21:44;7.50;98.70
580;DHT22;276;48.392;9.950;2023-04-03T08:24:11;7.60;98.60
580;DHT22;276;48.392;9.950;2023-04-03T08:26:39;7.60;97.90
580;DHT22;276;48.392;9.950;2023-04-03T08:29:04;7.70;98.00
580;DHT22;276;48.392;9.950;2023-04-03T08:31:30;7.70;98.10
580;DHT22;276;48.392;9.950;2023-04-03T08:33:57;7.80;98.10
580;DHT22;276;48.392;9.950;2023-04-03T08:36:25;7.90;98.20
580;DHT22;276;48.392;9.950;2023-04-03T08:38:55;8.00;97.70
580;DHT22;276;48.392;9.950;2023-04-03T08:44:19;7.90;97.20
580;DHT22;276;48.392;9.950;2023-04-03T08:47:18;8.00;97.50
580;DHT22;276;48.392;9.950;2023-04-03T08:49:44;8.00;97.50
580;DHT22;276;48.392;9.950;2023-04-03T08:52:48;8.00;97.60
580;DHT22;276;48.392;9.950;2023-04-03T08:55:31;8.00;97.70
580;DHT22;276;48.392;9.950;2023-04-03T08:58:02;8.00;97.70
580;DHT22;276;48.392;9.950;2023-04-03T09:00:41;7.90;97.30
580;DHT22;276;48.392;9.950;2023-04-03T09:03:15;7.90;97.40
580;DHT22;276;48.392;9.950;2023-04-03T09:13:52;8.00;97.60
580;DHT22;276;48.392;9.950;2023-04-03T09:16:28;8.10;97.80
580;DHT22;276;48.392;9.950;2023-04-03T09:19:18;8.10;97.30
580;DHT22;276;48.392;9.950;2023-04-03T09:21:47;8.10;97.60
580;DHT22;276;48.392;9.950;2023-04-03T09:24:15;8.20;97.70
580;DHT22;276;48.392;9.950;2023-04-03T09:26:53;8.30;97.40
580;DHT22;276;48.392;9.950;2023-04-03T09:29:23;8.30;96.80
580;DHT22;276;48.392;9.950;2023-04-03T09:31:58;8.30;96.90
580;DHT22;276;48.392;9.950;2023-04-03T09:34:30;8.30;96.80
580;DHT22;276;48.392;9.950;2023-04-03T09:36:58;8.30;96.80
580;DHT22;276;48.392;9.950;2023-04-03T09:39:27;8.30;97.20
580;DHT22;276;48.392;9.950;2023-04-03T09:44:31;8.30;96.20
580;DHT22;276;48.392;9.950;2023-04-03T09:46:59;8.20;96.00
580;DHT22;276;48.392;9.950;2023-04-03T09:49:46;8.20;96.40
580;DHT22;276;48.392;9.950;2023-04-03T09:52:25;8.10;96.70
580;DHT22;276;48.392;9.950;2023-04-03T09:54:51;8.10;96.70
580;DHT22;276;48.392;9.950;2023-04-03T09:57:19;8.00;96.70
580;DHT22;276;48.392;9.950;2023-04-03T09:59:57;8.10;96.80
580;DHT22;276;48.392;9.950;2023-04-03T10:02:32;8.10;96.70
580;DHT22;276;48.392;9.950;2023-04-03T10:05:03;8.00;96.30
580;DHT22;276;48.392;9.950;2023-04-03T10:07:38;7.90;96.40
580;DHT22;276;48.392;9.950;2023-04-03T10:10:26;7.90;96.40
580;DHT22;276;48.392;9.950;2023-04-03T10:13:14;7.90;96.60
580;DHT22;276;48.392;9.950;2023-04-03T10:21:08;7.90;96.80
580;DHT22;276;48.392;9.950;2023-04-03T10:23:50;8.00;96.50
580;DHT22;276;48.392;9.950;2023-04-03T10:29:36;7.90;96.30
580;DHT22;276;48.392;9.950;2023-04-03T10:34:44;7.90;95.90
580;DHT22;276;48.392;9.950;2023-04-03T10:37:35;7.80;96.00
580;DHT22;276;48.392;9.950;2023-04-03T10:48:40;7.90;95.20
580;DHT22;276;48.392;9.950;2023-04-03T10:54:00;8.00;94.20
580;DHT22;276;48.392;9.950;2023-04-03T11:01:36;8.00;94.70
580;DHT22;276;48.392;9.950;2023-04-03T11:04:06;7.90;94.50
580;DHT22;276;48.392;9.950;2023-04-03T11:06:39;8.00;94.80
580;DHT22;276;48.392;9.950;2023-04-03T11:09:30;8.00;94.90
580;DHT22;276;48.392;9.950;2023-04-03T11:12:27;8.00;95.30
580;DHT22;276;48.392;9.950;2023-04-03T11:14:52;8.00;96.20
580;DHT22;276;48.392;9.950;2023-04-03T11:22:31;8.10;97.30
580;DHT22;276;48.392;9.950;2023-04-03T11:35:52;8.60;97.00
580;DHT22;276;48.392;9.950;2023-04-03T11:38:31;8.60;96.60
580;DHT22;276;48.392;9.950;2023-04-03T11:41:04;8.60;96.20
580;DHT22;276;48.392;9.950;2023-04-03T11:43:39;8.60;96.00
580;DHT22;276;48.392;9.950;2023-04-03T11:46:06;8.70;96.40
580;DHT22;276;48.392;9.950;2023-04-03T11:53:39;8.80;95.50
580;DHT22;276;48.392;9.950;2023-04-03T12:01:48;8.80;95.20
580;DHT22;276;48.392;9.950;2023-04-03T12:04:16;8.80;95.60
580;DHT22;276;48.392;9.950;2023-04-03T12:06:54;8.80;95.70
580;DHT22;276;48.392;9.950;2023-04-03T12:09:28;8.70;95.50
580;DHT22;276;48.392;9.950;2023-04-03T12:11:57;8.70;95.80
580;DHT22;276;48.392;9.950;2023-04-03T12:14:30;8.70;95.80
580;DHT22;276;48.392;9.950;2023-04-03T12:16:56;8.70;95.70
580;DHT22;276;48.392;9.950;2023-04-03T12:19:37;8.70;95.30
580;DHT22;276;48.392;9.950;2023-04-03T12:22:09;8.60;95.20
580;DHT22;276;48.392;9.950;2023-04-03T12:24:38;8.70;95.10
580;DHT22;276;48.392;9.950;2023-04-03T12:27:23;8.70;95.10
580;DHT22;276;48.392;9.950;2023-04-03T12:29:58;8.70;95.30
580;DHT22;276;48.392;9.950;2023-04-03T12:32:47;8.70;95.20
580;DHT22;276;48.392;9.950;2023-04-03T12:35:55;8.70;94.70
580;DHT22;276;48.392;9.950;2023-04-03T12:41:38;8.60;94.20
580;DHT22;276;48.392;9.950;2023-04-03T12:46:51;8.40;94.00
580;DHT22;276;48.392;9.950;2023-04-03T12:51:50;8.30;94.40
580;DHT22;276;48.392;9.950;2023-04-03T12:56:46;8.30;94.30
580;DHT22;276;48.392;9.950;2023-04-03T13:02:00;8.30;94.50
580;DHT22;276;48.392;9.950;2023-04-03T13:04:33;8.40;94.50
580;DHT22;276;48.392;9.950;2023-04-03T13:07:04;8.50;94.60
580;DHT22;276;48.392;9.950;2023-04-03T13:09:31;8.60;94.60
580;DHT22;276;48.392;9.950;2023-04-03T13:14:26;8.60;93.60
580;DHT22;276;48.392;9.950;2023-04-03T13:17:13;8.60;93.20
580;DHT22;276;48.392;9.950;2023-04-03T13:19:40;8.50;93.80
580;DHT22;276;48.392;9.950;2023-04-03T13:24:58;8.50;93.40
580;DHT22;276;48.392;9.950;2023-04-03T13:27:24;8.50;93.60
580;DHT22;276;48.392;9.950;2023-04-03T13:29:54;8.50;93.60
580;DHT22;276;48.392;9.950;2023-04-03T13:32:24;8.60;93.90
580;DHT22;276;48.392;9.950;2023-04-03T13:34:52;8.60;93.50
580;DHT22;276;48.392;9.950;2023-04-03T13:39:57;8.70;93.00
580;DHT22;276;48.392;9.950;2023-04-03T13:42:31;8.70;92.30
580;DHT22;276;48.392;9.950;2023-04-03T13:45:29;8.70;92.50
580;DHT22;276;48.392;9.950;2023-04-03T13:48:19;8.60;92.60
580;DHT22;276;48.392;9.950;2023-04-03T13:53:27;8.80;92.80
580;DHT22;276;48.392;9.950;2023-04-03T13:58:31;8.80;93.00
580;DHT22;276;48.392;9.950;2023-04-03T14:01:34;8.70;92.10
580;DHT22;276;48.392;9.950;2023-04-03T14:04:15;8.70;91.40
580;DHT22;276;48.392;9.950;2023-04-03T14:06:41;8.60;91.60
580;DHT22;276;48.392;9.950;2023-04-03T14:09:09;8.60;91.90
580;DHT22;276;48.392;9.950;2023-04-03T14:11:38;8.60;91.90
580;DHT22;276;48.392;9.950;2023-04-03T14:14:15;8.60;91.60
580;DHT22;276;48.392;9.950;2023-04-03T14:16:44;8.50;91.30
580;DHT22;276;48.392;9.950;2023-04-03T14:19:18;8.60;91.00
580;DHT22;276;48.392;9.950;2023-04-03T14:21:44;8.70;91.20
580;DHT22;276;48.392;9.950;2023-04-03T14:24:10;8.80;91.20
580;DHT22;276;48.392;9.950;2023-04-03T14:26:36;9.00;91.50
580;DHT22;276;48.392;9.950;2023-04-03T14:29:02;9.10;91.20
580;DHT22;276;48.392;9.950;2023-04-03T14:31:28;9.10;90.50
580;DHT22;276;48.392;9.950;2023-04-03T14:33:56;9.10;90.20
580;DHT22;276;48.392;9.950;2023-04-03T14:36:24;9.20;90.40
580;DHT22;276;48.392;9.950;2023-04-03T14:38:56;9.30;89.20
580;DHT22;276;48.392;9.950;2023-04-03T14:41:24;9.30;88.80
580;DHT22;276;48.392;9.950;2023-04-03T14:43:50;9.30;88.40
580;DHT22;276;48.392;9.950;2023-04-03T14:48:53;9.30;88.20
580;DHT22;276;48.392;9.950;2023-04-03T14:51:19;9.30;87.60
580;DHT22;276;48.392;9.950;2023-04-03T14:53:45;9.30;88.10
580;DHT22;276;48.392;9.950;2023-04-03T14:56:21;9.40;88.50
580;DHT22;276;48.392;9.950;2023-04-03T14:58:55;9.40;87.70
580;DHT22;276;48.392;9.950;2023-04-03T15:01:21;9.30;86.90
580;DHT22;276;48.392;9.950;2023-04-03T15:03:47;9.20;87.50
580;DHT22;276;48.392;9.950;2023-04-03T15:06:16;9.10;88.40
580;DHT22;276;48.392;9.950;2023-04-03T15:08:46;9.10;88.90
580;DHT22;276;48.392;9.950;2023-04-03T15:11:14;9.00;89.00
580;DHT22;276;48.392;9.950;2023-04-03T15:13:42;9.00;88.50
580;DHT22;276;48.392;9.950;2023-04-03T15:16:20;9.00;88.40
580;DHT22;276;48.392;9.950;2023-04-03T15:18:47;9.00;88.20
580;DHT22;276;48.392;9.950;2023-04-03T15:21:13;9.00;88.20
580;DHT22;276;48.392;9.950;2023-04-03T15:23:43;9.10;87.90
580;DHT22;276;48.392;9.950;2023-04-03T15:26:11;9.10;88.00
580;DHT22;276;48.392;9.950;2023-04-03T15:28:42;9.10;87.70
580;DHT22;276;48.392;9.950;2023-04-03T15:31:09;9.10;87.20
580;DHT22;276;48.392;9.950;2023-04-03T15:33:35;9.10;86.60
580;DHT22;276;48.392;9.950;2023-04-03T15:36:02;9.10;86.90
580;DHT22;276;48.392;9.950;2023-04-03T15:38:30;9.00;85.80
580;DHT22;276;48.392;9.950;2023-04-03T15:40:56;9.00;86.10
580;DHT22;276;48.392;9.950;2023-04-03T15:43:27;9.10;86.30
580;DHT22;276;48.392;9.950;2023-04-03T15:45:56;9.10;86.00
580;DHT22;276;48.392;9.950;2023-04-03T15:48:22;9.10;86.00
580;DHT22;276;48.392;9.950;2023-04-03T15:50:47;9.20;84.40
580;DHT22;276;48.392;9.950;2023-04-03T15:53:13;9.20;83.40
580;DHT22;276;48.392;9.950;2023-04-03T15:55:39;9.20;83.10
580;DHT22;276;48.392;9.950;2023-04-03T15:58:07;9.10;82.80
580;DHT22;276;48.392;9.950;2023-04-03T16:00:33;9.00;83.10
580;DHT22;276;48.392;9.950;2023-04-03T16:03:05;8.90;82.80
580;DHT22;276;48.392;9.950;2023-04-03T16:05:35;8.90;83.80
580;DHT22;276;48.392;9.950;2023-04-03T16:08:04;8.90;84.40
580;DHT22;276;48.392;9.950;2023-04-03T16:10:30;9.00;84.90
580;DHT22;276;48.392;9.950;2023-04-03T16:12:56;9.00;83.80
580;DHT22;276;48.392;9.950;2023-04-03T16:15:24;8.90;82.60
580;DHT22;276;48.392;9.950;2023-04-03T16:17:52;8.80;82.00
580;DHT22;276;48.392;9.950;2023-04-03T16:20:19;8.80;81.50
580;DHT22;276;48.392;9.950;2023-04-03T16:22:49;8.80;81.70
580;DHT22;276;48.392;9.950;2023-04-03T16:25:15;8.80;80.40
580;DHT22;276;48.392;9.950;2023-04-03T16:27:41;8.70;80.30
580;DHT22;276;48.392;9.950;2023-04-03T16:30:07;8.60;80.30
580;DHT22;276;48.392;9.950;2023-04-03T16:32:33;8.60;80.70
580;DHT22;276;48.392;9.950;2023-04-03T16:35:02;8.60;80.80
580;DHT22;276;48.392;9.950;2023-04-03T16:37:28;8.60;81.20
580;DHT22;276;48.392;9.950;2023-04-03T16:39:58;8.60;81.20
580;DHT22;276;48.392;9.950;2023-04-03T16:42:24;8.60;81.40
580;DHT22;276;48.392;9.950;2023-04-03T16:44:52;8.60;81.90
580;DHT22;276;48.392;9.950;2023-04-03T16:47:18;8.60;81.50
580;DHT22;276;48.392;9.950;2023-04-03T16:49:45;8.50;80.90
580;DHT22;276;48.392;9.950;2023-04-03T16:52:12;8.50;81.90
580;DHT22;276;48.392;9.950;2023-04-03T16:54:42;8.50;82.10
580;DHT22;276;48.392;9.950;2023-04-03T16:57:08;8.60;82.00
580;DHT22;276;48.392;9.950;2023-04-03T16:59:33;8.60;82.20
580;DHT22;276;48.392;9.950;2023-04-03T17:01:59;8.60;81.80
580;DHT22;276;48.392;9.950;2023-04-03T17:04:27;8.60;82.00
580;DHT22;276;48.392;9.950;2023-04-03T17:06:52;8.60;82.30
580;DHT22;276;48.392;9.950;2023-04-03T17:09:20;8.70;82.50
580;DHT22;276;48.392;9.950;2023-04-03T17:11:46;8.70;82.20
580;DHT22;276;48.392;9.950;2023-04-03T17:14:12;8.60;82.10
580;DHT22;276;48.392;9.950;2023-04-03T17:16:40;8.70;82.10
580;DHT22;276;48.392;9.950;2023-04-03T17:19:06;8.70;82.00
580;DHT22;276;48.392;9.950;2023-04-03T17:21:36;8.70;80.70
580;DHT22;276;48.392;9.950;2023-04-03T17:24:04;8.70;80.10
580;DHT22;276;48.392;9.950;2023-04-03T17:26:33;8.60;79.60
580;DHT22;276;48.392;9.950;2023-04-03T17:29:02;8.70;80.10
580;DHT22;276;48.392;9.950;2023-04-03T17:31:28;8.60;78.90
580;DHT22;276;48.392;9.950;2023-04-03T17:33:53;8.60;79.30
580;DHT22;276;48.392;9.950;2023-04-03T17:36:19;8.60;79.80
580;DHT22;276;48.392;9.950;2023-04-03T17:38:44;8.60;80.40
580;DHT22;276;48.392;9.950;2023-04-03T17:41:13;8.60;81.20
580;DHT22;276;48.392;9.950;2023-04-03T17:43:38;8.60;82.00
580;DHT22;276;48.392;9.950;2023-04-03T17:46:09;8.60;82.40
580;DHT22;276;48.392;9.950;2023-04-03T17:48:39;8.60;82.50
580;DHT22;276;48.392;9.950;2023-04-03T17:51:07;8.60;82.60
580;DHT22;276;48.392;9.950;2023-04-03T17:53:33;8.60;82.50
580;DHT22;276;48.392;9.950;2023-04-03T17:56:05;8.60;82.50
580;DHT22;276;48.392;9.950;2023-04-03T17:58:31;8.60;82.60
580;DHT22;276;48.392;9.950;2023-04-03T18:00:57;8.60;82.50
580;DHT22;276;48.392;9.950;2023-04-03T18:03:22;8.60;82.30
580;DHT22;276;48.392;9.950;2023-04-03T18:05:48;8.60;82.30
580;DHT22;276;48.392;9.950;2023-04-03T18:08:15;8.60;82.40
580;DHT22;276;48.392;9.950;2023-04-03T18:10:41;8.60;82.40
580;DHT22;276;48.392;9.950;2023-04-03T18:13:10;8.60;82.50
580;DHT22;276;48.392;9.950;2023-04-03T18:15:37;8.70;82.70
580;DHT22;276;48.392;9.950;2023-04-03T18:18:08;8.60;82.40
580;DHT22;276;48.392;9.950;2023-04-03T18:20:34;8.70;82.20
580;DHT22;276;48.392;9.950;2023-04-03T18:23:01;8.70;81.80
580;DHT22;276;48.392;9.950;2023-04-03T18:25:30;8.70;81.70
580;DHT22;276;48.392;9.950;2023-04-03T18:27:55;8.70;81.70
580;DHT22;276;48.392;9.950;2023-04-03T18:30:23;8.70;81.50
580;DHT22;276;48.392;9.950;2023-04-03T18:32:53;8.70;81.20
580;DHT22;276;48.392;9.950;2023-04-03T18:35:21;8.60;81.00
580;DHT22;276;48.392;9.950;2023-04-03T18:37:46;8.60;80.80
580;DHT22;276;48.392;9.950;2023-04-03T18:40:14;8.60;80.70
580;DHT22;276;48.392;9.950;2023-04-03T18:42:45;8.60;81.40
580;DHT22;276;48.392;9.950;2023-04-03T18:45:12;8.50;81.00
580;DHT22;276;48.392;9.950;2023-04-03T18:47:41;8.50;81.00